Tiempo atmosférico en la estación meteorológica de Don Benito, Badajoz (273 m.)



Fecha
DESCASC
Temp. máxima en grados centígrados (hora)
DESCASC
Temp. mínima en grados centígrados (hora)
DESCASC
Temp. media en grados centígrados
DESCASC
Racha de viento máxima en m/sg (hora)
DESCASC
Velocidad máxima media en intervalos de 10 minutos(hora)
DESCASC
Precipitaciones diarias en mm
DESCASC
Precipitaciones de 00:00 a 06:00 en mm
DESCASC
Precipitaciones de 06:00 a 12:00 en mm
DESCASC
Precipitaciones de 12:00 a 18:00 en mm
DESCASC
Precipitaciones de 18:00 a 24:00 en mm
DESCASC
23-06-2019 32.2 (17:40) 16.4 (07:30) 24.3 7.78 (14:50) 2.78 (14:20) 0 0 0 0 0
22-06-2019 33.6 (18:00) 16.2 (07:50) 24.9 6.39 (17:10) 2.78 (15:20) 0 0 0 0 0
21-06-2019 31.1 (19:20) 13.3 (07:40) 22.2 7.78 (13:20) 3.33 (02:50) 0 0 0 0 0
20-06-2019 29 (18:30) 15.7 (00:00) 22.3 10.83 (18:10) 4.44 (16:40) 0 0 0 0 0
19-06-2019 28.3 (18:10) 16.5 (00:00) 22.4 8.89 (19:30) 3.33 (18:50) 0 0 0 0 0
18-06-2019 29.9 (18:40) 14.6 (00:00) 22.3 11.39 (19:50) 4.72 (19:40) 0 0 0 0 0
17-06-2019 33.8 (19:20) 14.2 (00:00) 24 7.78 (18:50) 3.89 (19:20) 0 0 0 0 0
16-06-2019 30.7 (19:50) 13.6 (00:00) 22.2 7.78 (16:40) 3.33 (16:40) 0 0 0 0 0
15-06-2019 27.3 (19:10) 11 (00:00) 19.1 6.94 (12:10) 2.78 (14:40) 0 0 0 0 0
14-06-2019 24 (17:30) 10.7 (00:00) 17.3 12.78 (15:30) 5.56 (16:30) 0 0 0 0 0
13-06-2019 28 (19:20) 10.5 (00:00) 19.3 9.72 (17:10) 3.61 (18:00) 0 0 0 0 0
12-06-2019 29 (18:30) 11.2 (00:00) 20.1 8.89 (19:40) 3.61 (18:50) 0 0 0 0 0
11-06-2019 26.9 (17:20) 12.3 (00:00) 19.6 12.22 (15:20) 5.56 (13:50) 0 0 0 0 0
10-06-2019 29.7 (19:10) 12.7 (00:00) 21.2 9.17 (21:30) 3.89 (21:50) 0 0 0 0 0
09-06-2019 28.1 (18:50) 11.3 (00:00) 19.7 11.67 (20:40) 5.56 (20:40) 0 0 0 0 0
08-06-2019 29.6 (18:50) 11.3 (00:00) 20.5 9.17 (19:40) 3.89 (19:40) 0 0 0 0 0
07-06-2019 24.9 (19:10) 11 (00:00) 17.9 11.39 (01:30) 5 (02:20) 0 0 0 0 0
06-06-2019 26.2 (18:00) 10 (00:00) 18.1 11.67 (22:50) 6.11 (23:30) 0 0 0 0 0
05-06-2019 24.4 (19:20) 11.4 (00:00) 17.9 11.67 (16:10) 4.72 (20:40) 0 0 0 0 0
04-06-2019 28 (18:10) 16.3 (00:00) 22.1 12.22 (20:50) 5 (17:00) 0 0 0 0 0
03-06-2019 35.9 (16:30) 18.3 (00:00) 27.1 10 (19:10) 3.61 (15:10) 0 0 0 0 0
02-06-2019 36.9 (19:30) 18.9 (00:00) 27.9 7.78 (22:40) 3.06 (22:40) 0 0 0 0 0
01-06-2019 36.1 (18:10) 17.9 (00:00) 27 6.39 (16:30) 2.5 (16:30) 0 0 0 0 0
31-05-2019 35.3 (18:00) 17.7 (00:00) 26.5 7.78 (20:00) 3.33 (05:20) 0 0 0 0 0
30-05-2019 34 (18:30) 18.6 (00:00) 26.3 10 (12:40) 3.61 (13:50) 0 0 0 0 0
29-05-2019 32 (18:40) 17.8 (00:00) 24.9 11.11 (12:10) 4.17 (11:40) 0 0 0 0 0
28-05-2019 33.3 (17:20) 16.1 (00:00) 24.7 10 (17:30) 4.17 (18:40) 0 0 0 0 0
27-05-2019 34.1 (18:50) 16.1 (00:00) 25.1 10.83 (18:40) 4.17 (19:00) 0 0 0 0 0
26-05-2019 32.1 (19:00) 14.7 (00:00) 23.4 7.5 (18:00) 3.33 (17:30) 0 0 0 0 0

Gráficas

Temp. máximas Temp. mínimas Temp. medias Precipitaciones Rachas de viento máximas Velocidades máximas media en intervalos de 10 minutos

Datos horarios

Fecha y hora oficial Temperatura (ºC) Velocidad del viento (km/h) Dirección del viento Racha (km/h) Dirección de racha Precipitación (mm) Presión (hPa) Tendencia (hPa) Humedad (%)
2019-06-24 23:00:00 21 6 Norte 19 Norte 0 982.9 1.8 50
2019-06-24 22:00:00 23 5 Norte 27 Noroeste 0 982 1.3 43
2019-06-24 21:00:00 25.6 10 Noroeste 29 Noroeste 0 981.5 1.2 42
2019-06-24 20:00:00 28.3 13 Noroeste 36 Noroeste 0 981.1 1 39
2019-06-24 19:00:00 30.2 14 Noroeste 41 Noroeste 0 980.7 0.2 34
2019-06-24 18:00:00 29.6 15 Noroeste 34 Noroeste 0 980.3 -0.6 38
2019-06-24 17:00:00 31.2 11 Noroeste 27 Noroeste 0 980.1 -1.4 31
2019-06-24 16:00:00 31.3 9 Noroeste 24 Sudoeste 0 980.5 -1.2 30
2019-06-24 15:00:00 29.9 9 Noroeste 25 Noroeste 0 980.9 -1 35
2019-06-24 14:00:00 28.7 9 Oeste 22 Oeste 0 981.5 -0.5 42
2019-06-24 13:00:00 27.2 5 Sur 17 Sudoeste 0 981.7 -0.2 47
2019-06-24 12:00:00 25.2 5 Oeste 14 Sudoeste 0 981.9 0.3 57
2019-06-24 11:00:00 25 4 Oeste 14 Sudoeste 0 982 0.6 59
2019-06-24 10:00:00 22.9 9 Sudoeste 15 Sudoeste 0 981.9 1.1 67
2019-06-24 09:00:00 21.4 6 Sudoeste 18 Sudoeste 0 981.6 0.7 73
2019-06-24 08:00:00 20.4 8 Oeste 16 Sudoeste 0 981.4 0.3 75
2019-06-24 07:00:00 20.8 4 Sudoeste 10 Oeste 0 980.8 -0.2 75
2019-06-24 06:00:00 21.2 5 Sudoeste 13 Oeste 0 980.9 -0.3 73
2019-06-24 05:00:00 21.4 4 Sudoeste 12 Oeste 0 981.1 0.1 70
2019-06-24 04:00:00 21.2 7 Sudoeste 12 Sur 0 981 0.1 69
2019-06-24 03:00:00 22 4 Sudoeste 14 Oeste 0 981.2 0.7 62
2019-06-24 02:00:00 22.9 5 Sudoeste 12 Sudoeste 0 981 1 57
2019-06-24 01:00:00 23.5 4 Sudoeste 12 Sudoeste 0 980.9 1.4 52
2019-06-24 00:00:00 24.4 5 Sudoeste 12 Sudoeste 0 980.5 1.5 33
2019-06-23 23:00:00 25.9 0 Calma 9 Oeste 0 980 1.4 26
2019-06-23 22:00:00 27.2 4 Oeste 16 Oeste 0 979.5 0.7 22
2019-06-23 21:00:00 29.3 6 Oeste 14 Oeste 0 979 -0.3 23
2019-06-23 20:00:00 30.6 6 Oeste 16 Noroeste 0 978.6 -1.2 18
2019-06-23 19:00:00 31.2 8 Noroeste 21 Oeste 0 978.8 -1.6 20
2019-06-23 18:00:00 31.8 9 Noroeste 23 Noroeste 0 979.3 -1.7 19
2019-06-23 17:00:00 31.6 8 Noroeste 23 Norte 0 979.8 -1.6 21
2019-06-23 16:00:00 30.6 10 Noroeste 22 Noroeste 0 980.4 -1.6 20
2019-06-23 15:00:00 30.5 7 Noroeste 28 Noroeste 0 981 -1.2 21
2019-06-23 14:00:00 28.9 6 Noroeste 20 Norte 0 981.4 -1.1 25
2019-06-23 13:00:00 27.6 6 Norte 16 Norte 0 982 -0.3 27
2019-06-23 12:00:00 25.2 6 Norte 16 Noroeste 0 982.2 0.2 29
2019-06-23 11:00:00 23.1 7 Noroeste 14 Noroeste 0 982.5 0.9 33
2019-06-23 10:00:00 22.3 3 Sudoeste 12 Oeste 0 982.3 0.8 32
2019-06-23 09:00:00 19 5 Sudoeste 11 Oeste 0 982 0.4 40
2019-06-23 08:00:00 17 4 Sudoeste 8 Oeste 0 981.6 0.2 44
2019-06-23 07:00:00 16.9 4 Sudoeste 19 Sudoeste 0 981.5 0.4 49
2019-06-23 06:00:00 17.7 7 Sudoeste 15 Sudoeste 0 981.6 0.6 43
2019-06-23 05:00:00 18.4 8 Sudoeste 16 Oeste 0 981.4 0.3 38
2019-06-23 04:00:00 19.6 6 Sudoeste 11 Sudoeste 0 981.1 0.4 33
2019-06-23 03:00:00 20.2 4 Sur 14 Sudoeste 0 981 0.5 33
2019-06-23 02:00:00 21.6 7 Sudoeste 14 Sudoeste 0 981.1 1.1 28
2019-06-23 01:00:00 22.7 7 Sudoeste 17 Sudoeste 0 980.7 1.2 25
2019-06-23 00:00:00 23.8 6 Sudoeste 13 Oeste 0 980.5 1.3 25
2019-06-22 23:00:00 26.1 5 Sudoeste 11 Sudoeste 0 980 1 25
2019-06-22 22:00:00 28.5 4 Oeste 14 Oeste 0 979.5 0.4 24
2019-06-22 21:00:00 31.9 6 Oeste 17 Oeste 0 979.2 -0.5 20
2019-06-22 20:00:00 33.2 3 Norte 14 Norte 0 979 -1.4 21
2019-06-22 19:00:00 32.8 4 Norte 15 Norte 0 979.1 -1.8 19
2019-06-22 18:00:00 33.6 4 Nordeste 23 Norte 0 979.7 -2.1 21
2019-06-22 17:00:00 32.6 7 Norte 21 Norte 0 980.4 -2.1 23
2019-06-22 16:00:00 31.3 7 Norte 20 Norte 0 980.9 -2.3 24
2019-06-22 15:00:00 30.7 6 Noroeste 17 Norte 0 981.8 -1.6 26
2019-06-22 14:00:00 29.4 6 Norte 14 Norte 0 982.5 -0.9 32
2019-06-22 13:00:00 27.1 6 Norte 13 Norte 0 983.2 -0.4 39
2019-06-22 12:00:00 25.1 3 Noroeste 11 Oeste 0 983.4 -0.1 42
2019-06-22 11:00:00 23.2 3 Norte 12 Oeste 0 983.4 0.4 44
2019-06-22 10:00:00 20.5 7 Sudoeste 13 Oeste 0 983.6 0.8 49
2019-06-22 09:00:00 17.6 5 Sudoeste 18 Sudoeste 0 983.5 0.9 61
2019-06-22 08:00:00 16.2 5 Sudoeste 14 Oeste 0 983 0.5 68
2019-06-22 07:00:00 16.9 8 Sudoeste 15 Sudoeste 0 982.8 0 63
2019-06-22 06:00:00 17.4 8 Sudoeste 17 Sudoeste 0 982.6 -0.2 62
2019-06-22 05:00:00 18 7 Sudoeste 15 Sudoeste 0 982.5 -0.2 61
2019-06-22 04:00:00 19 8 Sudoeste 19 Sudoeste 0 982.8 0.2 58
2019-06-22 03:00:00 19.6 9 Sudoeste 18 Sudoeste 0 982.8 0.1 54
2019-06-22 02:00:00 19.9 7 Sudoeste 16 Oeste 0 982.7 0.4 53
2019-06-22 01:00:00 22.1 9 Sudoeste 17 Oeste 0 982.6 0.6 42
2019-06-22 00:00:00 22.9 7 Sudoeste 15 Sudoeste 0 982.7 0.9 39
2019-06-21 23:00:00 24.9 4 Sudoeste 12 Sudoeste 0 982.3 0.8 33
2019-06-21 22:00:00 26.8 4 Sudoeste 10 Oeste 0 982 0.3 30
2019-06-21 21:00:00 28.5 5 Sudoeste 18 Sudoeste 0 981.8 -0.2 27
2019-06-21 20:00:00 30.3 9 Sudoeste 21 Oeste 0 981.5 -1 24
2019-06-21 19:00:00 30.8 9 Sudoeste 24 Sudoeste 0 981.7 -1.3 23
2019-06-21 18:00:00 30.5 7 Sudoeste 21 Sudoeste 0 982 -1.5 25
2019-06-21 17:00:00 29.5 11 Sudoeste 20 Sudoeste 0 982.5 -1.7 27
2019-06-21 16:00:00 28.6 7 Sudoeste 19 Oeste 0 983 -1.5 30
2019-06-21 15:00:00 27.4 6 Sudoeste 27 Sur 0 983.5 -1.4 33
2019-06-21 14:00:00 25 7 Oeste 28 Sudoeste 0 984.2 -0.7 41
2019-06-21 13:00:00 23.1 9 Oeste 20 Sudoeste 0 984.5 -0.6 46
2019-06-21 12:00:00 21.6 7 Oeste 18 Oeste 0 984.9 0.2 51
2019-06-21 11:00:00 19.2 9 Oeste 20 Oeste 0 984.9 0.6 60
2019-06-21 10:00:00 17.1 11 Sudoeste 20 Sudoeste 0 985.1 1.5 67
2019-06-21 09:00:00 14.7 11 Oeste 24 Oeste 0 984.7 1.3 78
2019-06-21 08:00:00 13.4 8 Sudoeste 16 Sudoeste 0 984.3 0.9 82
2019-06-21 07:00:00 13.5 10 Sudoeste 18 Sudoeste 0 983.6 0.3 82
2019-06-21 06:00:00 14.1 7 Sudoeste 23 Sudoeste 0 983.4 -0.3 79
2019-06-21 05:00:00 14.9 10 Sudoeste 22 Sudoeste 0 983.4 -0.1 75
2019-06-21 04:00:00 16.2 10 Oeste 21 Sudoeste 0 983.3 0.1 68
2019-06-21 03:00:00 17.6 10 Oeste 27 Oeste 0 983.7 1 61
2019-06-21 02:00:00 18.8 9 Oeste 20 Oeste 0 983.5 1.6 56
2019-06-21 01:00:00 19.9 9 Oeste 26 Oeste 0 983.2 2 51
2019-06-21 00:00:00 21.3 11 Oeste 26 Noroeste 0 982.7 1.7 45
2019-06-20 23:00:00 22.3 10 Oeste 28 Oeste 0 981.9 1.2 42
2019-06-20 22:00:00 24.2 12 Oeste 25 Sudoeste 0 981.2 0.4 38
2019-06-20 21:00:00 25.9 11 Oeste 27 Oeste 0 981 -0.3 31
2019-06-20 20:00:00 27.8 13 Oeste 30 Oeste 0 980.7 -0.6 26
2019-06-20 19:00:00 28.2 11 Oeste 39 Oeste 0 980.8 -1.1 25
2019-06-20 18:00:00 28 13 Noroeste 35 Oeste 0 981.3 -1 29
2019-06-20 17:00:00 28.4 12 Oeste 38 Sudoeste 0 981.3 -1.6 31
2019-06-20 16:00:00 27.6 13 Oeste 29 Noroeste 0 981.9 -1.2 34
2019-06-20 15:00:00 27.5 10 Oeste 30 Oeste 0 982.3 -0.9 35
2019-06-20 14:00:00 25.8 9 Oeste 27 Noroeste 0 982.9 -0.3 41
2019-06-20 13:00:00 25.5 7 Oeste 21 Sudoeste 0 983.1 -0.3 41
2019-06-20 12:00:00 23.7 6 Oeste 17 Oeste 0 983.2 0 46
2019-06-20 11:00:00 21.7 6 Oeste 16 Oeste 0 983.2 -0.1 56
2019-06-20 10:00:00 19.3 11 Sudoeste 22 Oeste 0 983.4 0.3 66
2019-06-20 09:00:00 17.8 12 Sudoeste 20 Sudoeste 0 983.2 0.3 72
2019-06-20 08:00:00 16.2 6 Sudoeste 13 Sudoeste 0 983.3 0.4 79
2019-06-20 07:00:00 15.9 5 Sudoeste 14 Sudoeste 0 983.1 0.1 77
2019-06-20 06:00:00 16.2 6 Sudoeste 11 Sudoeste 0 982.9 -0.3 75
2019-06-20 05:00:00 17 5 Sudoeste 16 Sudoeste 0 982.9 -0.4 72
2019-06-20 04:00:00 17.8 8 Oeste 15 Sudoeste 0 983 -0.2 69
2019-06-20 03:00:00 18.7 9 Sudoeste 17 Sudoeste 0 983.2 0 67
2019-06-20 02:00:00 19.1 6 Sudoeste 11 Sudoeste 0 983.3 0.6 65
2019-06-20 01:00:00 19.9 5 Sudoeste 12 Sudoeste 0 983.2 0.6 61
2019-06-20 00:00:00 21.1 4 Oeste 8 Oeste 0 983.2 0.5 55
2019-06-19 23:00:00 22 4 Oeste 10 Oeste 0 982.7 0 53
2019-06-19 22:00:00 24 4 Oeste 21 Oeste 0 982.6 -0.2 44
2019-06-19 21:00:00 26.1 6 Oeste 23 Noroeste 0 982.7 -0.6 38
2019-06-19 20:00:00 27.5 8 Oeste 32 Noroeste 0 982.7 -1.1 34
2019-06-19 19:00:00 27.3 12 Oeste 27 Noroeste 0 982.8 -1.6 35
2019-06-19 18:00:00 28.2 11 Oeste 26 Noroeste 0 983.3 -1.4 32
2019-06-19 17:00:00 26.3 10 Noroeste 24 Noroeste 0 983.8 -1.4 39
2019-06-19 16:00:00 26 8 Oeste 23 Noroeste 0 984.4 -1 40
2019-06-19 15:00:00 25.3 7 Oeste 20 Noroeste 0 984.7 -0.6 43
2019-06-19 14:00:00 24.6 8 Sudoeste 20 Sudoeste 0 985.2 0 43
2019-06-19 13:00:00 23.9 7 Sudoeste 18 Sudoeste 0 985.4 0.2 46
2019-06-19 12:00:00 21.2 6 Oeste 19 Noroeste 0 985.3 0.4 61
2019-06-19 11:00:00 20.8 5 Oeste 17 Sur 0 985.2 0.5 63
2019-06-19 10:00:00 20.1 7 Oeste 15 Sur 0 985.2 0.7 65
2019-06-19 09:00:00 18.6 5 Sudoeste 11 Sudoeste 0 984.9 0.6 71
2019-06-19 08:00:00 17.6 3 Sudoeste 9 Oeste 0 984.7 0.8 75
2019-06-19 07:00:00 17.1 4 Oeste 13 Oeste 0 984.5 0.8 76
2019-06-19 06:00:00 16.5 4 Oeste 8 Sudoeste 0 984.3 0.5 73
2019-06-19 05:00:00 17.2 5 Sudoeste 10 Sudoeste 0 983.9 0 70
2019-06-19 04:00:00 18.1 4 Oeste 14 Oeste 0 983.7 0.1 65
2019-06-19 03:00:00 18.9 5 Oeste 18 Sudoeste 0 983.8 0.4 61
2019-06-19 02:00:00 19.9 6 Oeste 17 Oeste 0 983.9 1 54
2019-06-19 01:00:00 21 9 Oeste 19 Oeste 0 983.6 1.2 57
2019-06-19 00:00:00 22 9 Oeste 19 Oeste 0 983.4 1.4 54
2019-06-18 23:00:00 22.9 6 Oeste 17 Oeste 0 982.9 1.1 50
2019-06-18 22:00:00 24.9 7 Oeste 32 Oeste 0 982.4 0.8 43
2019-06-18 21:00:00 26.9 12 Oeste 34 Sudoeste 0 982 0.3 36
2019-06-18 20:00:00 28.5 13 Oeste 41 Oeste 0 981.8 -0.2 32
2019-06-18 19:00:00 29.6 16 Oeste 40 Oeste 0 981.6 -0.7 28
2019-06-18 18:00:00 29.2 16 Oeste 33 Oeste 0 981.7 -1.1 31
2019-06-18 17:00:00 28.8 13 Oeste 32 Oeste 0 982 -1.5 32
2019-06-18 16:00:00 29.1 10 Oeste 36 Oeste 0 982.3 -1.2 29
2019-06-18 15:00:00 27.8 13 Oeste 32 Noroeste 0 982.8 -0.9 27
2019-06-18 14:00:00 26 8 Noroeste 24 Noroeste 0 983.5 -0.3 25
2019-06-18 13:00:00 25.2 7 Noroeste 18 Noroeste 0 983.5 -0.3 27
2019-06-18 12:00:00 23 3 Sudoeste 14 Oeste 0 983.7 0 33
2019-06-18 11:00:00 20.5 6 Oeste 15 Oeste 0 983.8 0.7 41
2019-06-18 10:00:00 18.4 5 Oeste 14 Sudoeste 0 983.8 1.1 45
2019-06-18 09:00:00 16.4 7 Sudoeste 13 Sudoeste 0 983.7 1.4 46
2019-06-18 08:00:00 14.8 3 Sudeste 8 Sudeste 0 983.1 1.1 54
2019-06-18 07:00:00 15.6 4 Sudoeste 12 Oeste 0 982.7 0.6 52
2019-06-18 06:00:00 16.7 5 Oeste 11 Sudoeste 0 982.3 0 46
2019-06-18 05:00:00 17.4 4 Sudoeste 14 Oeste 0 982 -0.1 50
2019-06-18 04:00:00 19 6 Oeste 18 Oeste 0 982.1 0 44
2019-06-18 03:00:00 21 8 Sudoeste 14 Sudoeste 0 982.3 0.3 32
2019-06-18 02:00:00 22.3 3 Oeste 9 Sudoeste 0 982.1 0.7 26
2019-06-18 01:00:00 23 4 Sudeste 11 Sudoeste 0 982.1 1.3 24
2019-06-18 00:00:00 23.9 5 Sudoeste 13 Oeste 0 982 1.5 28
2019-06-17 23:00:00 25 5 Sudoeste 10 Oeste 0 981.4 1 27
2019-06-17 22:00:00 27.2 6 Oeste 14 Oeste 0 980.8 0.4 21
2019-06-17 21:00:00 30.9 5 Oeste 22 Sudoeste 0 980.5 -0.5 14
2019-06-17 20:00:00 32.6 10 Sudoeste 28 Sudoeste 0 980.4 -1.1 11
2019-06-17 19:00:00 32.3 12 Sudoeste 28 Sudoeste 0 980.4 -1.9 11
2019-06-17 18:00:00 32.2 5 Noroeste 24 Noroeste 0 981 -1.9 15
2019-06-17 17:00:00 30.7 6 Norte 21 Norte 0 981.5 -2.5 20
2019-06-17 16:00:00 31 9 Noroeste 24 Norte 0 982.3 -2.2 17
2019-06-17 15:00:00 29.7 6 Noroeste 21 Noroeste 0 982.9 -2.1 17
2019-06-17 14:00:00 28.2 9 Noroeste 21 Noroeste 0 984 -1.7 24
2019-06-17 13:00:00 27.3 6 Norte 15 Norte 0 984.5 -1.2 29
2019-06-17 12:00:00 25.7 5 Nordeste 14 Norte 0 985 -0.5 30
2019-06-17 11:00:00 23.2 3 Norte 11 Noroeste 0 985.7 0.1 40
2019-06-17 10:00:00 20.6 4 Norte 8 Noroeste 0 985.7 0.3 49
2019-06-17 09:00:00 16.8 0 Calma 9 Sudeste 0 985.5 0.2 63
2019-06-17 08:00:00 15 4 Sur 11 Sudeste 0 985.6 0.3 69
2019-06-17 07:00:00 15.5 6 Sudoeste 14 Sudoeste 0 985.4 0.2 68
2019-06-17 06:00:00 16.5 9 Sudoeste 14 Oeste 0 985.3 0 62
2019-06-17 05:00:00 17.3 6 Oeste 16 Oeste 0 985.3 0.3 57
2019-06-17 04:00:00 17.8 4 Oeste 15 Oeste 0 985.2 0.2 53
2019-06-17 03:00:00 19.3 5 Oeste 17 Sudoeste 0 985.3 0.7 44
2019-06-17 02:00:00 20.2 8 Sudoeste 19 Sudoeste 0 985 1 34
2019-06-17 01:00:00 20.7 7 Sudoeste 15 Sudoeste 0 985 1.4 29
2019-06-17 00:00:00 22.1 4 Sudoeste 9 Sudoeste 0 984.6 1.4 27
2019-06-16 23:00:00 24.1 4 Sudoeste 9 Oeste 0 984 0.9 32
2019-06-16 22:00:00 26.8 4 Oeste 15 Noroeste 0 983.6 0.6 25
2019-06-16 21:00:00 29.3 4 Norte 12 Nordeste 0 983.2 -0.1 20
2019-06-16 20:00:00 30.5 4 Norte 14 Norte 0 983.1 -0.6 18
2019-06-16 19:00:00 30.3 4 Norte 21 Noroeste 0 983 -1.4 19
2019-06-16 18:00:00 29.4 9 Norte 21 Norte 0 983.3 -1.6 20
2019-06-16 17:00:00 28.3 12 Norte 28 Noroeste 0 983.7 -1.6 21
2019-06-16 16:00:00 28.7 8 Noroeste 19 Noroeste 0 984.4 -1.2 21
2019-06-16 15:00:00 26.4 5 Norte 12 Norte 0 984.9 -1.2 28
2019-06-16 14:00:00 25.5 4 Norte 12 Norte 0 985.3 -0.9 29
2019-06-16 13:00:00 23.5 3 Norte 9 Norte 0 985.6 -0.4 34
2019-06-16 12:00:00 22 4 Norte 10 Norte 0 986.1 0.3 39
2019-06-16 11:00:00 21 4 Noroeste 11 Noroeste 0 986.2 0.6 42
2019-06-16 10:00:00 17.9 5 Oeste 14 Oeste 0 986 0.7 51
2019-06-16 09:00:00 15.7 5 Oeste 12 Sudoeste 0 985.8 0.8 56
2019-06-16 08:00:00 13.9 5 Sudoeste 9 Sudoeste 0 985.6 0.5 57
2019-06-16 07:00:00 13.9 5 Sudoeste 9 Sudoeste 0 985.3 0.2 54
2019-06-16 06:00:00 14.8 5 Sudoeste 9 Sudoeste 0 985 -0.5 43
2019-06-16 05:00:00 15.1 3 Sudoeste 9 Sudeste 0 985.1 -0.7 40
2019-06-16 04:00:00 17.1 3 Sudeste 10 Sudeste 0 985.1 -0.9 31
2019-06-16 03:00:00 17.4 4 Sudeste 8 Sudeste 0 985.5 -0.6 30
2019-06-16 02:00:00 -- -- -- -- -- -- -- -- --
2019-06-16 01:00:00 -- -- -- -- -- -- -- -- --
2019-06-16 00:00:00 -- -- -- -- -- -- -- -- --
2019-06-15 23:00:00 -- -- -- -- -- -- -- -- --
2019-06-15 22:00:00 -- -- -- -- -- -- -- -- --
2019-06-15 21:00:00 -- -- -- -- -- -- -- -- --
2019-06-15 20:00:00 -- -- -- -- -- -- -- -- --
2019-06-15 19:00:00 -- -- -- -- -- -- -- -- --
2019-06-15 18:00:00 -- -- -- -- -- -- -- -- --
2019-06-15 17:00:00 -- -- -- -- -- -- -- -- --
2019-06-15 16:00:00 -- -- -- -- -- -- -- -- --
2019-06-15 15:00:00 -- -- -- -- -- -- -- -- --
2019-06-15 14:00:00 -- -- -- -- -- -- -- -- --
2019-06-15 13:00:00 -- -- -- -- -- -- -- -- --
2019-06-15 12:00:00 -- -- -- -- -- -- -- -- --
2019-06-15 11:00:00 -- -- -- -- -- -- -- -- --
2019-06-15 10:00:00 -- -- -- -- -- -- -- -- --
2019-06-15 09:00:00 -- -- -- -- -- -- -- -- --
2019-06-15 08:00:00 -- -- -- -- -- -- -- -- --
2019-06-15 07:00:00 -- -- -- -- -- -- -- -- --
2019-06-15 06:00:00 -- -- -- -- -- -- -- -- --
2019-06-15 05:00:00 -- -- -- -- -- -- -- -- --
2019-06-15 04:00:00 -- -- -- -- -- -- -- -- --
2019-06-15 03:00:00 -- -- -- -- -- -- -- -- --
2019-06-15 02:00:00 -- -- -- -- -- -- -- -- --
2019-06-15 01:00:00 -- -- -- -- -- -- -- -- --
2019-06-15 00:00:00 -- -- -- -- -- -- -- -- --
2019-06-14 23:00:00 -- -- -- -- -- -- -- -- --
2019-06-14 22:00:00 -- -- -- -- -- -- -- -- --
2019-06-14 21:00:00 20.8 8 Oeste 24 Noroeste 0 984.9 1 30
2019-06-14 20:00:00 22.1 10 Oeste 32 Oeste 0 984.3 0.6 27
2019-06-14 19:00:00 21.9 9 Oeste 36 Oeste 0 984 0.1 29
2019-06-14 18:00:00 23.3 14 Oeste 36 Sudoeste 0 983.9 -0.2 25
2019-06-14 17:00:00 23.5 15 Oeste 42 Oeste 0 983.7 -0.3 26
2019-06-14 16:00:00 22.3 14 Oeste 46 Oeste 0 983.9 0 28
2019-06-14 15:00:00 21.7 18 Oeste 42 Sudoeste 0 984.1 0.6 29
2019-06-14 14:00:00 21.2 16 Oeste 38 Oeste 0 984 0.7 30
2019-06-14 13:00:00 20.5 14 Oeste 36 Sudoeste 0 983.9 1.2 31
2019-06-14 12:00:00 19 13 Sudoeste 32 Sudoeste 0 983.5 1.2 34
2019-06-14 11:00:00 16.7 10 Sudoeste 24 Sudoeste 0 983.3 1.5 43
2019-06-14 10:00:00 15 14 Sudoeste 28 Sudoeste 0 982.7 1.4 54
2019-06-14 09:00:00 12.6 13 Oeste 32 Sudoeste 0 982.3 1.3 68
2019-06-14 08:00:00 10.8 4 Sudoeste 9 Oeste 0 981.8 1 73
2019-06-14 07:00:00 11 4 Noroeste 19 Oeste 0 981.3 0.7 73
2019-06-14 06:00:00 12.3 8 Sudoeste 21 Sudoeste 0 981 0.6 63
2019-06-14 05:00:00 13.2 4 Oeste 23 Sudoeste 0 980.8 0.9 60
2019-06-14 04:00:00 14.1 15 Sudoeste 27 Sudoeste 0 980.6 1 56
2019-06-14 03:00:00 14.9 13 Sudoeste 24 Sudoeste 0 980.4 1.4 52
2019-06-14 02:00:00 16.5 11 Sudoeste 24 Oeste 0 979.9 1.6 47
2019-06-14 01:00:00 17.7 10 Sudoeste 17 Oeste 0 979.6 2.1 41
2019-06-14 00:00:00 19.1 6 Oeste 15 Oeste 0 979 2.2 33
2019-06-13 23:00:00 20.4 6 Sudoeste 15 Sudoeste 0 978.3 1.8 32
2019-06-13 22:00:00 23 5 Oeste 17 Oeste 0 977.5 0.9 27
2019-06-13 21:00:00 25.7 8 Oeste 22 Sudoeste 0 976.8 0.2 20
2019-06-13 20:00:00 26.4 8 Oeste 27 Noroeste 0 976.5 -0.6 18
2019-06-13 19:00:00 26.7 9 Oeste 30 Oeste 0 976.6 -1 20
2019-06-13 18:00:00 26.4 13 Noroeste 35 Noroeste 0 976.6 -1.5 22
2019-06-13 17:00:00 26.7 11 Oeste 28 Noroeste 0 977.1 -1.5 22
2019-06-13 16:00:00 26.7 10 Oeste 26 Noroeste 0 977.6 -1.6 21
2019-06-13 15:00:00 25.3 9 Oeste 22 Oeste 0 978.1 -1.6 23
2019-06-13 14:00:00 23.1 6 Noroeste 21 Norte 0 978.6 -1.1 29
2019-06-13 13:00:00 20.8 5 Oeste 15 Norte 0 979.2 -0.8 34
2019-06-13 12:00:00 18.8 5 Oeste 16 Noroeste 0 979.7 0.2 41
2019-06-13 11:00:00 16.5 5 Oeste 13 Noroeste 0 979.7 0.5 48
2019-06-13 10:00:00 14.5 5 Sudoeste 15 Oeste 0 980 1 56
2019-06-13 09:00:00 12.2 7 Oeste 15 Sudoeste 0 979.5 0.9 65
2019-06-13 08:00:00 10.6 5 Sudoeste 13 Sudoeste 0 979.2 0.7 68
2019-06-13 07:00:00 10.9 6 Sudoeste 12 Sudoeste 0 979 0.6 69
2019-06-13 06:00:00 11.7 2 Norte 13 Noroeste 0 978.6 0.1 65
2019-06-13 05:00:00 12.9 3 Oeste 18 Oeste 0 978.5 -0.1 57
2019-06-13 04:00:00 14.5 8 Sudoeste 19 Oeste 0 978.4 -0.1 48
2019-06-13 03:00:00 15.5 3 Sudoeste 19 Sudoeste 0 978.5 0.7 47
2019-06-13 02:00:00 16.9 10 Sudoeste 18 Sudoeste 0 978.6 1.5 40
2019-06-13 01:00:00 17.4 4 Oeste 11 Sudoeste 0 978.5 2 31
2019-06-13 00:00:00 19.5 4 Sudoeste 13 Oeste 0 977.8 1.4 25
2019-06-12 23:00:00 21.7 5 Oeste 13 Sudoeste 0 977.1 0.6 22
2019-06-12 22:00:00 24.2 4 Oeste 19 Oeste 0 976.5 -0.5 17
2019-06-12 21:00:00 26.9 8 Oeste 26 Noroeste 0 976.4 -1.2 12
2019-06-12 20:00:00 28.7 9 Oeste 32 Noroeste 0 976.5 -1.6 11
2019-06-12 19:00:00 28.6 10 Noroeste 30 Noroeste 0 977 -1.8 11
2019-06-12 18:00:00 28.6 10 Noroeste 28 Noroeste 0 977.6 -2.1 11
2019-06-12 17:00:00 27.8 11 Noroeste 26 Oeste 0 978.1 -2.2 11
2019-06-12 16:00:00 27.7 8 Oeste 22 Noroeste 0 978.8 -2 12
2019-06-12 15:00:00 26.8 8 Oeste 23 Oeste 0 979.7 -1.5 12
2019-06-12 14:00:00 26.2 5 Noroeste 18 Oeste 0 980.3 -1 15
2019-06-12 13:00:00 25.2 4 Noroeste 13 Norte 0 980.8 -0.6 18
2019-06-12 12:00:00 23.2 4 Sudoeste 10 Sur 0 981.2 0 19
2019-06-12 11:00:00 20.7 4 Norte 11 Este 0 981.3 0.3 25
2019-06-12 10:00:00 18.4 4 Norte 13 Norte 0 981.4 0.8 31
2019-06-12 09:00:00 14 2 Nordeste 8 Este 0 981.2 0.8 40
2019-06-12 08:00:00 12.2 0 Calma 8 Sudeste 0 981 0.5 39
2019-06-12 07:00:00 11.3 3 Sur 8 Sudeste 0 980.6 0 35
2019-06-12 06:00:00 13 3 Noroeste 6 Noroeste 0 980.4 -0.4 37
2019-06-12 05:00:00 13 0 Calma 4 Sudoeste 0 980.5 -0.6 41
2019-06-12 04:00:00 14.2 2 Sudoeste 4 Sudoeste 0 980.6 -0.6 33
2019-06-12 03:00:00 15.4 0 Calma 6 Nordeste 0 980.8 -0.2 32
2019-06-12 02:00:00 16.4 2 Norte 9 Nordeste 0 981.1 0.6 30
2019-06-12 01:00:00 17.6 3 Norte 11 Norte 0 981.2 1.5 28
2019-06-12 00:00:00 18.4 3 Norte 12 Norte 0 981 1.8 26
2019-06-11 23:00:00 20.4 6 Norte 24 Norte 0 980.5 1.8 21
2019-06-11 22:00:00 22.7 10 Norte 29 Norte 0 979.7 1 19
2019-06-11 21:00:00 24.7 13 Norte 35 Norte 0 979.2 0.4 18
2019-06-11 20:00:00 26.2 13 Norte 31 Norte 0 978.7 -0.4 18
2019-06-11 19:00:00 26.7 13 Noroeste 39 Noroeste 0 978.7 -0.8 18
2019-06-11 18:00:00 26.7 12 Noroeste 37 Noroeste 0 978.8 -1.2 18
2019-06-11 17:00:00 25.8 15 Noroeste 32 Noroeste 0 979.1 -0.9 17
2019-06-11 16:00:00 25.4 19 Noroeste 44 Noroeste 0 979.5 -0.6 20
2019-06-11 15:00:00 24.6 17 Noroeste 42 Noroeste 0 980 -0.3 21
2019-06-11 14:00:00 24.1 19 Noroeste 41 Noroeste 0 980 -0.6 25
2019-06-11 13:00:00 23.5 15 Noroeste 36 Noroeste 0 980.1 -0.5 28
2019-06-11 12:00:00 22.1 15 Noroeste 36 Oeste 0 980.3 -0.3 34
2019-06-11 11:00:00 19.3 9 Oeste 27 Oeste 0 980.6 -0.2 42
2019-06-11 10:00:00 16.9 10 Oeste 32 Oeste 0 980.6 -0.3 48
2019-06-11 09:00:00 13.9 11 Oeste 25 Sudoeste 0 980.6 -0.3 60
2019-06-11 08:00:00 12.5 8 Sudoeste 24 Oeste 0 980.8 -0.3 62
2019-06-11 07:00:00 12.4 10 Sudoeste 24 Oeste 0 980.9 -0.9 62
2019-06-11 06:00:00 13.1 12 Sudoeste 31 Oeste 0 980.9 -1.1 57
2019-06-11 05:00:00 13.7 15 Oeste 29 Oeste 0 981.1 -1.2 55
2019-06-11 04:00:00 14.7 13 Sudoeste 31 Oeste 0 981.8 -0.6 51
2019-06-11 03:00:00 15.8 12 Sudoeste 32 Oeste 0 982 -0.4 47
2019-06-11 02:00:00 17.3 12 Sudoeste 24 Sudoeste 0 982.3 0.6 37
2019-06-11 01:00:00 18.9 10 Sudoeste 24 Oeste 0 982.4 1.3 34
2019-06-11 00:00:00 20.6 11 Oeste 25 Oeste 0 982.4 1.4 30
2019-06-10 23:00:00 22.5 12 Oeste 28 Oeste 0 981.7 0.4 26
2019-06-10 22:00:00 24.4 13 Oeste 33 Oeste 0 981.1 -0.5 27
2019-06-10 21:00:00 27.5 6 Oeste 22 Noroeste 0 981 -1 14
2019-06-10 20:00:00 29.3 10 Oeste 28 Oeste 0 981.3 -1.4 12
2019-06-10 19:00:00 29.6 12 Oeste 28 Oeste 0 981.6 -1.7 13
2019-06-10 18:00:00 28.5 9 Oeste 26 Oeste 0 982 -2.1 16
2019-06-10 17:00:00 28 8 Noroeste 30 Noroeste 0 982.7 -2.2 17
2019-06-10 16:00:00 28.3 9 Oeste 27 Noroeste 0 983.3 -2.2 18
2019-06-10 15:00:00 25.9 6 Noroeste 25 Sudoeste 0 984.1 -1.8 24
2019-06-10 14:00:00 25.1 10 Oeste 28 Oeste 0 984.9 -1.2 29
2019-06-10 13:00:00 23.4 11 Oeste 27 Sudoeste 0 985.5 -0.6 36
2019-06-10 12:00:00 21.1 10 Oeste 23 Sudoeste 0 985.9 -0.1 42
2019-06-10 11:00:00 19 11 Oeste 24 Sudoeste 0 986.1 0.7 49
2019-06-10 10:00:00 16.5 13 Sudoeste 25 Sudoeste 0 986.1 0.5 60
2019-06-10 09:00:00 14.3 11 Oeste 23 Oeste 0 986 0.6 70
2019-06-10 08:00:00 12.7 10 Sudoeste 19 Oeste 0 985.4 -0.3 77
2019-06-10 07:00:00 12.9 9 Sudoeste 19 Sudoeste 0 985.6 -0.6 74
2019-06-10 06:00:00 13.5 8 Sudoeste 18 Sudoeste 0 985.4 -1.1 70
2019-06-10 05:00:00 13.8 7 Sudoeste 14 Sudoeste 0 985.7 -0.7 66
2019-06-10 04:00:00 15.2 6 Sudoeste 19 Oeste 0 986.2 -0.1 58
2019-06-10 03:00:00 16.1 8 Oeste 15 Sudoeste 0 986.5 0.4 54
2019-06-10 02:00:00 17.3 7 Sudoeste 14 Oeste 0 986.4 1 48
2019-06-10 01:00:00 18.5 6 Oeste 17 Oeste 0 986.3 1.5 44
2019-06-10 00:00:00 19.9 6 Oeste 21 Noroeste 0 986.1 1.9 39
2019-06-09 23:00:00 21.2 7 Oeste 24 Noroeste 0 985.4 1.5 32
2019-06-09 22:00:00 22.9 10 Oeste 37 Oeste 0 984.8 1 29
2019-06-09 21:00:00 25 17 Oeste 42 Oeste 0 984.2 0.1 26
2019-06-09 20:00:00 27.2 17 Oeste 38 Oeste 0 983.9 -0.7 21
2019-06-09 19:00:00 27.7 14 Oeste 31 Oeste 0 983.8 -1.5 19
2019-06-09 18:00:00 27.7 12 Oeste 32 Oeste 0 984.1 -1.8 22
2019-06-09 17:00:00 27 11 Oeste 30 Oeste 0 984.6 -1.9 23
2019-06-09 16:00:00 25.6 12 Oeste 32 Oeste 0 985.3 -1.4 25
2019-06-09 15:00:00 24.4 13 Sudoeste 27 Oeste 0 985.9 -1 23
2019-06-09 14:00:00 23.3 10 Oeste 25 Sudoeste 0 986.5 -0.5 24
2019-06-09 13:00:00 21.3 12 Sudoeste 29 Noroeste 0 986.7 -0.5 32
2019-06-09 12:00:00 18.5 9 Oeste 28 Oeste 0 986.9 0 40
2019-06-09 11:00:00 16.8 10 Oeste 22 Oeste 0 987 0.6 48
2019-06-09 10:00:00 14.8 10 Oeste 22 Oeste 0 987.2 1.3 51
2019-06-09 09:00:00 12.6 10 Oeste 19 Oeste 0 986.9 1 59
2019-06-09 08:00:00 11.4 5 Oeste 15 Oeste 0 986.4 0.4 63
2019-06-09 07:00:00 12.3 6 Oeste 15 Oeste 0 985.9 -0.3 59
2019-06-09 06:00:00 13.2 4 Oeste 14 Sudoeste 0 985.9 -0.3 55
2019-06-09 05:00:00 14.4 8 Sudoeste 23 Oeste 0 986 0 52
2019-06-09 04:00:00 15.5 9 Oeste 21 Oeste 0 986.2 0.7 50
2019-06-09 03:00:00 16.6 9 Sudoeste 19 Sudoeste 0 986.2 1.1 47
2019-06-09 02:00:00 17.4 8 Sudoeste 14 Sudoeste 0 986 1.7 43
2019-06-09 01:00:00 18.9 5 Oeste 12 Sudoeste 0 985.5 1.9 36
2019-06-09 00:00:00 20.4 6 Sudoeste 13 Sudoeste 0 985.1 1.9 30
2019-06-08 23:00:00 22.3 5 Sudoeste 12 Sudoeste 0 984.3 1.4 26
2019-06-08 22:00:00 24.5 5 Oeste 21 Oeste 0 983.6 0.5 20
2019-06-08 21:00:00 27.5 10 Oeste 26 Noroeste 0 983.2 -0.5 15
2019-06-08 20:00:00 28.6 12 Noroeste 33 Noroeste 0 982.9 -1.5 13
2019-06-08 19:00:00 28.9 9 Oeste 30 Noroeste 0 983.1 -2.1 14
2019-06-08 18:00:00 29.3 10 Oeste 29 Noroeste 0 983.7 -1.9 14
2019-06-08 17:00:00 28.6 5 Noroeste 20 Noroeste 0 984.4 -1.9 15
2019-06-08 16:00:00 27.4 10 Oeste 23 Noroeste 0 985.2 -1.2 15
2019-06-08 15:00:00 27.2 7 Sudoeste 19 Sudoeste 0 985.6 -1 14
2019-06-08 14:00:00 25.2 3 Oeste 12 Noroeste 0 986.3 -0.4 21
2019-06-08 13:00:00 24.1 4 Nordeste 14 Norte 0 986.4 -0.7 24
2019-06-08 12:00:00 22 5 Noroeste 14 Noroeste 0 986.6 -0.5 29
2019-06-08 11:00:00 19.9 4 Oeste 9 Oeste 0 986.7 -0.4 33
2019-06-08 10:00:00 16.9 4 Oeste 9 Sudoeste 0 987.1 0.2 40
2019-06-08 09:00:00 13.6 6 Sudoeste 9 Sudoeste 0 987.1 0.2 50
2019-06-08 08:00:00 11.4 4 Sudoeste 8 Sudoeste 0 987.1 0 52
2019-06-08 07:00:00 11.6 2 Sur 8 Sudoeste 0 986.9 -0.2 51
2019-06-08 06:00:00 12.2 4 Sudoeste 8 Sudoeste 0 986.9 -0.4 48
2019-06-08 05:00:00 12.8 3 Sudoeste 6 Sudoeste 0 987.1 -0.1 45
2019-06-08 04:00:00 13.4 2 Sur 5 Sur 0 987.1 -0.2 49
2019-06-08 03:00:00 13.9 2 Sur 8 Sudoeste 0 987.3 0 46
2019-06-08 02:00:00 15.3 0 Calma 5 Noroeste 0 987.2 0.4 44
2019-06-08 01:00:00 16.8 3 Noroeste 7 Norte 0 987.3 1 39
2019-06-08 00:00:00 18 3 Norte 9 Norte 0 987.3 1.2 37
2019-06-07 23:00:00 19.3 3 Norte 10 Noroeste 0 986.8 0.8 34
2019-06-07 22:00:00 21 4 Norte 14 Noroeste 0 986.3 0.4 27
2019-06-07 21:00:00 22.7 5 Norte 21 Noroeste 0 986.1 0.1 21
2019-06-07 20:00:00 24.5 5 Norte 17 Norte 0 986 -0.2 19
2019-06-07 19:00:00 24.3 4 Sur 18 Noroeste 0 985.9 -0.6 18
2019-06-07 18:00:00 23.7 4 Sudeste 24 Norte 0 986 -0.5 19
2019-06-07 17:00:00 23.1 5 Norte 24 Norte 0 986.2 -0.4 20
2019-06-07 16:00:00 22.2 8 Noroeste 26 Noroeste 0 986.5 -0.1 25
2019-06-07 15:00:00 21.5 7 Noroeste 30 Noroeste 0 986.5 0.1 27
2019-06-07 14:00:00 20.2 10 Noroeste 26 Noroeste 0 986.6 0.4 28
2019-06-07 13:00:00 18.9 6 Oeste 21 Norte 0 986.6 0.8 34
2019-06-07 12:00:00 17.7 9 Noroeste 27 Noroeste 0 986.4 1.3 38
2019-06-07 11:00:00 16.2 9 Noroeste 29 Noroeste 0 986.2 1.9 46
2019-06-07 10:00:00 14.4 10 Noroeste 25 Noroeste 0 985.8 2.2 64
2019-06-07 09:00:00 12.4 8 Oeste 23 Oeste 0 985.1 1.9 80
2019-06-07 08:00:00 11.1 5 Sudoeste 13 Sudoeste 0 984.3 1.7 84
2019-06-07 07:00:00 11.4 6 Oeste 18 Oeste 0 983.6 1.4 83
2019-06-07 06:00:00 12.3 6 Oeste 31 Oeste 0 983.2 1.3 78
2019-06-07 05:00:00 13.7 10 Oeste 24 Sudoeste 0 982.6 1.5 76
2019-06-07 04:00:00 13.8 10 Sudoeste 25 Oeste 0 982.2 2.2 74
2019-06-07 03:00:00 13.7 7 Oeste 41 Noroeste 0 981.9 2.3 67
2019-06-07 02:00:00 15.5 10 Oeste 41 Oeste 0 981.1 2.2 77
2019-06-07 01:00:00 19.1 16 Sudoeste 36 Sudoeste 0 980 1.8 52
2019-06-07 00:00:00 19.9 16 Sudoeste 41 Oeste 0 979.6 1.6 46
2019-06-06 23:00:00 20.5 16 Oeste 42 Oeste 0 978.9 1.3 41
2019-06-06 22:00:00 21.6 16 Oeste 35 Oeste 0 978.2 0.6 34
2019-06-06 21:00:00 22.9 15 Oeste 40 Oeste 0 978 -0.2 30
2019-06-06 20:00:00 24.9 18 Oeste 39 Oeste 0 977.6 -1.5 25
2019-06-06 19:00:00 26 14 Oeste 41 Oeste 0 977.6 -2.5 22
2019-06-06 18:00:00 26.1 13 Oeste 32 Oeste 0 978.2 -2.5 20
2019-06-06 17:00:00 25.2 8 Oeste 32 Oeste 0 979.1 -2.4 21
2019-06-06 16:00:00 24.3 11 Oeste 28 Sudoeste 0 980.1 -2.1 23
2019-06-06 15:00:00 22.5 10 Oeste 28 Sudoeste 0 980.7 -1.7 25
2019-06-06 14:00:00 21.6 8 Oeste 23 Oeste 0 981.5 -1.3 27
2019-06-06 13:00:00 19.2 10 Oeste 24 Sudoeste 0 982.2 -1 33
2019-06-06 12:00:00 18.3 6 Oeste 18 Oeste 0 982.4 -0.7 37
2019-06-06 11:00:00 16.2 5 Sudoeste 19 Oeste 0 982.8 -0.5 43
2019-06-06 10:00:00 14.2 6 Oeste 18 Oeste 0 983.2 0 54
2019-06-06 09:00:00 12.4 8 Sudoeste 17 Sudoeste 0 983.1 -0.1 59
2019-06-06 08:00:00 10.5 7 Sudoeste 14 Oeste 0 983.3 -0.2 64
2019-06-06 07:00:00 10.7 6 Sudoeste 19 Oeste 0 983.2 -0.4 63
2019-06-06 06:00:00 11.2 6 Sudoeste 15 Sudoeste 0 983.2 -0.5 61
2019-06-06 05:00:00 11.8 8 Sudoeste 16 Sudoeste 0 983.5 -0.4 57
2019-06-06 04:00:00 12.4 6 Sudoeste 16 Sudoeste 0 983.6 -0.1 52
2019-06-06 03:00:00 13.2 4 Sudoeste 15 Noroeste 0 983.7 0.3 49
2019-06-06 02:00:00 14.5 6 Oeste 17 Noroeste 0 983.9 1.1 44
2019-06-06 01:00:00 15.4 5 Oeste 14 Noroeste 0 983.7 1.3 41
2019-06-06 00:00:00 16.8 4 Oeste 19 Oeste 0 983.4 1.4 36
2019-06-05 23:00:00 18.2 9 Oeste 22 Sudoeste 0 982.8 1 33
2019-06-05 22:00:00 20 12 Oeste 31 Oeste 0 982.4 0.3 27
2019-06-05 21:00:00 22 16 Sudoeste 34 Oeste 0 982 -0.4 24
2019-06-05 20:00:00 23.9 10 Oeste 31 Oeste 0 981.8 -1 21
2019-06-05 19:00:00 24.2 9 Oeste 33 Oeste 0 982.1 -1 20
2019-06-05 18:00:00 23.6 13 Oeste 37 Noroeste 0 982.4 -1.1 20
2019-06-05 17:00:00 22.1 13 Noroeste 42 Oeste 0 982.8 -1.2 23
2019-06-05 16:00:00 23.4 12 Noroeste 40 Noroeste 0 983.1 -1.2 23
2019-06-05 15:00:00 22 13 Noroeste 32 Noroeste 0 983.5 -0.7 27
2019-06-05 14:00:00 20.9 10 Noroeste 32 Noroeste 0 984 -0.1 29
2019-06-05 13:00:00 19.8 11 Oeste 32 Oeste 0 984.3 0.3 33
2019-06-05 12:00:00 18.7 12 Oeste 32 Oeste 0 984.2 0.8 40
2019-06-05 11:00:00 17.1 9 Oeste 32 Oeste 0 984.1 1.2 47
2019-06-05 10:00:00 15.4 11 Oeste 30 Oeste 0 984 1.6 60
2019-06-05 09:00:00 13 9 Oeste 23 Oeste 0 983.4 1.6 75
2019-06-05 08:00:00 11.5 10 Oeste 23 Oeste 0 982.9 1.4 81
2019-06-05 07:00:00 11.7 8 Oeste 25 Sudoeste 0 982.4 1.1 79
2019-06-05 06:00:00 12.2 11 Oeste 30 Oeste 0 981.8 0.3 76
2019-06-05 05:00:00 12.9 12 Oeste 30 Oeste 0 981.5 0.4 68
2019-06-05 04:00:00 13.5 14 Oeste 32 Oeste 0 981.3 0.5 62
2019-06-05 03:00:00 14.3 10 Oeste 34 Sudoeste 0 981.5 1.2 55
2019-06-05 02:00:00 15.5 10 Oeste 35 Oeste 0 981.1 1.6 49
2019-06-05 01:00:00 17.2 12 Oeste 39 Oeste 0 980.8 2 48
2019-06-05 00:00:00 18.5 11 Oeste 35 Oeste 0 980.3 1.5 48
2019-06-04 23:00:00 19.6 12 Oeste 32 Oeste 0 979.5 1.2 47
2019-06-04 22:00:00 21.1 10 Oeste 35 Oeste 0 978.8 0.3 41
2019-06-04 21:00:00 22.7 14 Noroeste 44 Noroeste 0 978.8 -0.1 47
2019-06-04 20:00:00 24.9 13 Oeste 42 Oeste 0 978.3 -1.4 37
2019-06-04 19:00:00 26.6 12 Oeste 39 Oeste 0 978.5 -1.9 32
2019-06-04 18:00:00 27.7 15 Oeste 39 Oeste 0 978.9 -2 32
2019-06-04 17:00:00 27.2 18 Sudoeste 34 Sudoeste 0 979.7 -1.7 32
2019-06-04 16:00:00 26.6 14 Oeste 34 Sudoeste 0 980.4 -1.6 34
2019-06-04 15:00:00 25.7 15 Oeste 35 Oeste 0 980.9 -1.3 37
2019-06-04 14:00:00 24.5 13 Oeste 30 Sudoeste 0 981.4 -1.2 39
2019-06-04 13:00:00 23.5 12 Oeste 32 Sudoeste 0 982 -0.6 42
2019-06-04 12:00:00 21.6 13 Oeste 30 Sudoeste 0 982.2 -0.1 50
2019-06-04 11:00:00 20.7 12 Oeste 28 Sudoeste 0 982.6 0.7 55
2019-06-04 10:00:00 18.9 12 Sudoeste 27 Sudoeste 0 982.6 1.1 65
2019-06-04 09:00:00 17.3 11 Oeste 26 Oeste 0 982.3 1.2 75
2019-06-04 08:00:00 16.3 6 Oeste 18 Oeste 0 981.9 0.5 83
2019-06-04 07:00:00 16.9 4 Oeste 11 Oeste 0 981.5 -0.2 79
2019-06-04 06:00:00 18.1 6 Oeste 15 Sudoeste 0 981.1 -0.6 72
2019-06-04 05:00:00 19.3 9 Oeste 18 Sudoeste 0 981.4 -0.7 66
2019-06-04 04:00:00 20.2 9 Sudoeste 17 Sudoeste 0 981.7 -0.4 63
2019-06-04 03:00:00 21.4 9 Oeste 19 Sudoeste 0 981.7 -0.2 60
2019-06-04 02:00:00 22.9 10 Sudoeste 20 Oeste 0 982.1 0.9 53
2019-06-04 01:00:00 24.7 9 Sudoeste 17 Oeste 0 982.1 1.4 40
2019-06-04 00:00:00 25.5 5 Oeste 14 Oeste 0 981.9 1.5 34
2019-06-03 23:00:00 27.6 6 Oeste 23 Oeste 0 981.2 0.8 26
2019-06-03 22:00:00 29.3 8 Oeste 24 Noroeste 0 980.7 -0.2 22
2019-06-03 21:00:00 32 9 Oeste 32 Sudoeste 0 980.4 -1.1 15
2019-06-03 20:00:00 33.8 13 Oeste 36 Noroeste 0 980.4 -1.6 12
2019-06-03 19:00:00 34.7 11 Noroeste 33 Oeste 0 980.9 -2 12
2019-06-03 18:00:00 34.9 12 Oeste 31 Noroeste 0 981.5 -2.1 10
2019-06-03 17:00:00 35.6 10 Oeste 35 Oeste 0 982 -2.1 10
2019-06-03 16:00:00 34.8 10 Oeste 28 Oeste 0 982.9 -1.9 11
2019-06-03 15:00:00 33.9 10 Oeste 24 Sudoeste 0 983.6 -1.4 11
2019-06-03 14:00:00 31.9 6 Oeste 17 Oeste 0 984.1 -1.3 14
2019-06-03 13:00:00 30.4 6 Oeste 18 Oeste 0 984.8 -0.6 16
2019-06-03 12:00:00 27.7 5 Oeste 15 Sudoeste 0 985 0 23
2019-06-03 11:00:00 25.2 5 Oeste 14 Noroeste 0 985.4 0.7 31
2019-06-03 10:00:00 22.9 5 Oeste 13 Sudoeste 0 985.4 1.2 37
2019-06-03 09:00:00 19.5 7 Oeste 15 Oeste 0 985 1.1 45
2019-06-03 08:00:00 19.1 6 Sudoeste 15 Sudoeste 0 984.7 0.6 46
2019-06-03 07:00:00 18.6 7 Sudoeste 13 Sudoeste 0 984.2 0.1 48
2019-06-03 06:00:00 20.3 9 Sudoeste 17 Sudoeste 0 983.9 -0.7 41
2019-06-03 05:00:00 21.4 9 Sudoeste 19 Sudoeste 0 984.1 -0.6 36
2019-06-03 04:00:00 22.9 9 Oeste 17 Oeste 0 984.1 -0.4 30
2019-06-03 03:00:00 23.8 8 Oeste 16 Oeste 0 984.6 0.6 28
2019-06-03 02:00:00 24.8 3 Sudoeste 13 Sudoeste 0 984.7 1.7 26
2019-06-03 01:00:00 26.4 4 Sudoeste 10 Sudoeste 0 984.5 2.3 23
2019-06-03 00:00:00 27.4 2 Sudoeste 14 Noroeste 0 984 1.8 22
2019-06-02 23:00:00 29.4 8 Norte 28 Noroeste 0 983 1 18
2019-06-02 22:00:00 30.6 2 Sudoeste 10 Oeste 0 982.2 -0.2 19
2019-06-02 21:00:00 34 6 Oeste 17 Oeste 0 982.2 -0.6 15
2019-06-02 20:00:00 35.6 8 Noroeste 17 Noroeste 0 982 -1 12
2019-06-02 19:00:00 36.3 6 Noroeste 20 Noroeste 0 982.4 -1.4 12
2019-06-02 18:00:00 35.5 6 Norte 22 Noroeste 0 982.8 -1.7 13
2019-06-02 17:00:00 34.8 9 Noroeste 19 Noroeste 0 983 -2.3 14
2019-06-02 16:00:00 34.5 6 Norte 17 Noroeste 0 983.8 -2.2 16
2019-06-02 15:00:00 33.3 5 Norte 14 Sudoeste 0 984.5 -1.7 19
2019-06-02 14:00:00 31.9 5 Noroeste 16 Oeste 0 985.3 -0.9 20
2019-06-02 13:00:00 29.7 4 Norte 14 Norte 0 986 0 25
2019-06-02 12:00:00 27.9 5 Norte 14 Norte 0 986.2 0.4 25
2019-06-02 11:00:00 26.4 4 Oeste 10 Oeste 0 986.2 0.7 29
2019-06-02 10:00:00 23.6 3 Norte 9 Norte 0 986 1.1 36
2019-06-02 09:00:00 20.3 3 Noroeste 9 Noroeste 0 985.8 1.4 43
2019-06-02 08:00:00 19 0 Calma 4 Nordeste 0 985.5 1.4 40
2019-06-02 07:00:00 19.4 0 Calma 5 Sudeste 0 984.9 0.7 35
2019-06-02 06:00:00 20.5 3 Sudeste 13 Sudoeste 0 984.4 -0.3 31
2019-06-02 05:00:00 22 10 Sur 20 Sur 0 984.1 -0.1 27
2019-06-02 04:00:00 22.6 7 Sudoeste 14 Sudoeste 0 984.2 0.2 26
2019-06-02 03:00:00 23.1 4 Sudoeste 20 Oeste 0 984.7 0.7 26
2019-06-02 02:00:00 24.4 7 Sudeste 23 Sudeste 0 984.2 0.6 19
2019-06-02 01:00:00 25.7 3 Sudeste 6 Sudeste 0 984 0.7 20
2019-06-02 00:00:00 26.8 3 Sudeste 7 Sudoeste 0 984 0.8 18
2019-06-01 23:00:00 29.1 3 Noroeste 10 Noroeste 0 983.6 0.3 19
2019-06-01 22:00:00 30.7 2 Noroeste 6 Este 0 983.3 -0.3 18
2019-06-01 21:00:00 34.2 2 Nordeste 9 Nordeste 0 983.2 -0.8 12
2019-06-01 20:00:00 35.5 5 Nordeste 12 Nordeste 0 983.3 -1.4 11
2019-06-01 19:00:00 35.6 6 Norte 21 Nordeste 0 983.6 -1.8 10
2019-06-01 18:00:00 35.4 6 Norte 20 Nordeste 0 984 -2 11
2019-06-01 17:00:00 35.3 6 Nordeste 23 Norte 0 984.7 -2.2 13
2019-06-01 16:00:00 34.2 7 Norte 21 Noroeste 0 985.4 -1.9 15
2019-06-01 15:00:00 33.5 6 Norte 18 Nordeste 0 986 -1.5 17
2019-06-01 14:00:00 32.4 5 Norte 17 Norte 0 986.9 -0.9 18
2019-06-01 13:00:00 31.6 5 Norte 15 Nordeste 0 987.3 -0.5 19
2019-06-01 12:00:00 30.4 4 Nordeste 13 Este 0 987.5 0 18
2019-06-01 11:00:00 27.5 5 Nordeste 11 Nordeste 0 987.8 0.4 23
2019-06-01 10:00:00 25.7 4 Nordeste 8 Nordeste 0 987.8 1 27
2019-06-01 09:00:00 20.9 3 Nordeste 7 Nordeste 0 987.5 0.9 40
2019-06-01 08:00:00 18.4 3 Nordeste 7 Nordeste 0 987.4 0.9 46
2019-06-01 07:00:00 18.2 0 Calma 7 Sudeste 0 986.8 0.6 37
2019-06-01 06:00:00 19.2 3 Sur 6 Sur 0 986.6 0.6 37
2019-06-01 05:00:00 20.4 2 Norte 11 Sudeste 0 986.5 0.5 32
2019-06-01 04:00:00 21.3 2 Este 9 Sudeste 0 986.2 0.3 31
2019-06-01 03:00:00 23.6 6 Sudeste 14 Sudeste 0 986 0.2 24
2019-06-01 02:00:00 24.1 6 Sudeste 23 Sudeste 0 986 0.9 21
2019-06-01 01:00:00 26.4 4 Sudeste 10 Nordeste 0 985.9 1.2 19
2019-06-01 00:00:00 27.5 4 Nordeste 9 Nordeste 0 985.8 1.2 26
2019-05-31 23:00:00 28.5 6 Norte 13 Norte 0 985.1 0.4 23
2019-05-31 22:00:00 31.1 4 Este 13 Sudeste 0 984.7 -0.6 14
2019-05-31 21:00:00 33.4 7 Este 18 Nordeste 0 984.6 -1.1 12
2019-05-31 20:00:00 34.3 7 Nordeste 28 Nordeste 0 984.7 -1.7 13
2019-05-31 19:00:00 34.5 6 Nordeste 24 Nordeste 0 985.3 -1.6 13
2019-05-31 18:00:00 35.1 6 Nordeste 24 Nordeste 0 985.7 -1.7 13
2019-05-31 17:00:00 34.3 7 Norte 22 Norte 0 986.4 -1.9 13
2019-05-31 16:00:00 34 5 Norte 27 Nordeste 0 986.9 -1.8 16
2019-05-31 15:00:00 33.6 6 Nordeste 23 Nordeste 0 987.4 -1.6 17
2019-05-31 14:00:00 31.9 6 Nordeste 20 Nordeste 0 988.3 -1.1 20
2019-05-31 13:00:00 30.2 4 Nordeste 15 Este 0 988.7 -0.8 23
2019-05-31 12:00:00 27.6 6 Norte 17 Nordeste 0 989 -0.4 29
2019-05-31 11:00:00 26.1 5 Nordeste 11 Nordeste 0 989.4 0.2 31
2019-05-31 10:00:00 23.1 3 Norte 8 Nordeste 0 989.5 0.7 34
2019-05-31 09:00:00 19.4 3 Sur 11 Sur 0 989.4 1.3 39
2019-05-31 08:00:00 17.9 3 Sudeste 10 Sudeste 0 989.2 1.1 41
2019-05-31 07:00:00 18.3 3 Este 8 Nordeste 0 988.8 0.8 43
2019-05-31 06:00:00 18.4 0 Calma 17 Sudoeste 0 988.1 0.2 43
2019-05-31 05:00:00 18.5 5 Sudoeste 14 Sudoeste 0 988.1 0.1 38
2019-05-31 04:00:00 19.7 6 Sur 14 Sudoeste 0 988 0 32
2019-05-31 03:00:00 21.1 4 Nordeste 17 Sudeste 0 987.9 0 32
2019-05-31 02:00:00 24.1 9 Sudeste 18 Sudeste 0 988 0.7 19
2019-05-31 01:00:00 25.9 6 Este 17 Este 0 988 1.4 22
2019-05-31 00:00:00 27.4 6 Este 13 Este 0 987.9 1.5 18
2019-05-30 23:00:00 28.7 6 Este 13 Sudeste 0 987.3 1 17
2019-05-30 22:00:00 29.2 5 Nordeste 14 Nordeste 0 986.6 -0.1 16
2019-05-30 21:00:00 32 8 Nordeste 23 Nordeste 0 986.4 -0.7 13
2019-05-30 20:00:00 33.7 6 Nordeste 22 Nordeste 0 986.3 -1.3 13
2019-05-30 19:00:00 33.8 7 Nordeste 23 Nordeste 0 986.7 -1.4 13
2019-05-30 18:00:00 33.6 6 Nordeste 27 Nordeste 0 987.1 -1.8 14
2019-05-30 17:00:00 32.8 11 Nordeste 32 Norte 0 987.6 -1.9 12
2019-05-30 16:00:00 32.4 8 Nordeste 28 Nordeste 0 988.1 -1.8 17
2019-05-30 15:00:00 31.6 9 Este 30 Nordeste 0 988.9 -1.4 13
2019-05-30 14:00:00 30.5 9 Nordeste 32 Este 0 989.5 -1 17
2019-05-30 13:00:00 28.3 12 Este 36 Sudeste 0 989.9 -0.2 19
2019-05-30 12:00:00 27.3 11 Nordeste 26 Este 0 990.3 0.5 22
2019-05-30 11:00:00 25.3 10 Este 24 Nordeste 0 990.5 0.9 22
2019-05-30 10:00:00 23.4 10 Nordeste 21 Nordeste 0 990.1 1 29
2019-05-30 09:00:00 21.1 6 Nordeste 17 Nordeste 0 989.8 1 32
2019-05-30 08:00:00 19.4 5 Este 21 Este 0 989.6 1 33
2019-05-30 07:00:00 20.3 8 Este 21 Este 0 989.1 0.6 30
2019-05-30 06:00:00 19.3 5 Este 13 Este 0 988.8 0.3 34
2019-05-30 05:00:00 20.4 5 Este 20 Este 0 988.6 0.1 30
2019-05-30 04:00:00 21.6 7 Este 18 Nordeste 0 988.5 0.2 28
2019-05-30 03:00:00 21.5 4 Este 14 Este 0 988.5 0.5 28
2019-05-30 02:00:00 21.8 5 Este 12 Nordeste 0 988.5 1.4 27
2019-05-30 01:00:00 23.3 5 Este 12 Este 0 988.3 1.8 23
2019-05-30 00:00:00 24.2 5 Este 20 Nordeste 0 988 1.9 23
2019-05-29 23:00:00 26.3 8 Nordeste 21 Nordeste 0 987.1 1.3 21
2019-05-29 22:00:00 28.1 8 Nordeste 24 Nordeste 0 986.5 0.5 15
2019-05-29 21:00:00 30 8 Nordeste 24 Nordeste 0 986.1 -0.1 13
2019-05-29 20:00:00 31.6 9 Nordeste 26 Nordeste 0 985.8 -1 13
2019-05-29 19:00:00 31.9 8 Nordeste 25 Este 0 986 -1.2 15
2019-05-29 18:00:00 31.3 8 Nordeste 26 Nordeste 0 986.2 -1.4 15
2019-05-29 17:00:00 30.8 9 Nordeste 31 Nordeste 0 986.8 -1.4 18
2019-05-29 16:00:00 29.5 6 Este 29 Nordeste 0 987.2 -1.3 18
2019-05-29 15:00:00 28.5 10 Nordeste 26 Este 0 987.6 -0.8 17
2019-05-29 14:00:00 27.1 12 Este 32 Este 0 988.2 -0.1 18
2019-05-29 13:00:00 26.1 11 Nordeste 40 Nordeste 0 988.5 0.6 21
2019-05-29 12:00:00 24.6 13 Nordeste 35 Este 0 988.4 0.8 24
2019-05-29 11:00:00 23.2 15 Este 34 Este 0 988.3 1.5 23
2019-05-29 10:00:00 22.1 13 Este 31 Este 0 987.9 1.6 26
2019-05-29 09:00:00 19.6 8 Este 19 Sudeste 0 987.6 1.9 30
2019-05-29 08:00:00 18.2 8 Este 17 Sudeste 0 986.8 1.5 30
2019-05-29 07:00:00 18.4 7 Este 14 Sudeste 0 986.3 1.5 28
2019-05-29 06:00:00 19.1 5 Este 15 Este 0 985.7 1.4 26
2019-05-29 05:00:00 20.4 7 Este 24 Este 0 985.3 1.1 24
2019-05-29 04:00:00 21.6 9 Este 24 Este 0 984.8 1.2 22
2019-05-29 03:00:00 22.2 9 Este 27 Este 0 984.3 1.3 26
2019-05-29 02:00:00 21.6 5 Nordeste 13 Nordeste 0 984.2 2 32
2019-05-29 01:00:00 22.6 5 Nordeste 12 Nordeste 0 983.6 2 31
2019-05-29 00:00:00 23.6 4 Norte 13 Noroeste 0 983 1.9 26
2019-05-28 23:00:00 24.6 3 Oeste 16 Norte 0 982.2 1.5 23
2019-05-28 22:00:00 27 7 Noroeste 28 Noroeste 0 981.6 1 19
2019-05-28 21:00:00 29.9 12 Noroeste 31 Noroeste 0 981.1 0.4 13
2019-05-28 20:00:00 31.9 14 Noroeste 36 Noroeste 0 980.7 0 11
2019-05-28 19:00:00 32.4 15 Noroeste 33 Noroeste 0 980.6 -0.3 12
2019-05-28 18:00:00 33.3 10 Noroeste 36 Norte 0 980.7 -0.7 16
2019-05-28 17:00:00 32.6 9 Norte 27 Noroeste 0 980.7 -1.1 17
2019-05-28 16:00:00 32.8 5 Sudoeste 21 Norte 0 980.9 -1 17
2019-05-28 15:00:00 31.9 5 Nordeste 24 Nordeste 0 981.4 -0.5 19
2019-05-28 14:00:00 30.6 9 Nordeste 19 Nordeste 0 981.8 0.1 22
2019-05-28 13:00:00 29.3 6 Nordeste 18 Nordeste 0 981.9 0.4 28
2019-05-28 12:00:00 26.7 5 Nordeste 15 Nordeste 0 981.9 0.5 38
2019-05-28 11:00:00 24.2 3 Nordeste 9 Nordeste 0 981.7 0.9 43
2019-05-28 10:00:00 20.8 0 Calma 9 Noroeste 0 981.5 1.3 57
2019-05-28 09:00:00 18 5 Oeste 14 Sudoeste 0 981.4 1.4 69
2019-05-28 08:00:00 16.3 5 Sudoeste 11 Sudoeste 0 980.8 1.1 74
2019-05-28 07:00:00 16.4 8 Sudoeste 18 Sudoeste 0 980.2 0.3 74
2019-05-28 06:00:00 17.3 10 Sudoeste 24 Oeste 0 980 0 72
2019-05-28 05:00:00 18.1 8 Sudoeste 19 Sudoeste 0 979.7 -0.3 68
2019-05-28 04:00:00 19.3 12 Sudoeste 23 Sudoeste 0 979.9 -0.1 64
2019-05-28 03:00:00 20.1 10 Sudoeste 18 Sudoeste 0 980 0.4 62
2019-05-28 02:00:00 21.3 8 Sudoeste 20 Sudoeste 0 980 1.2 56
2019-05-28 01:00:00 23 9 Sudoeste 20 Sudoeste 0 980 1.8 49
2019-05-28 00:00:00 24.6 7 Sudoeste 15 Sudoeste 0 979.6 1.8 37
2019-05-27 23:00:00 26.4 4 Oeste 9 Noroeste 0 978.8 1.2 27
2019-05-27 22:00:00 29 4 Oeste 16 Noroeste 0 978.2 0.4 24
2019-05-27 21:00:00 30.8 7 Norte 31 Noroeste 0 977.8 -0.4 20
2019-05-27 20:00:00 33.1 12 Noroeste 31 Norte 0 977.6 -1.1 16
2019-05-27 19:00:00 33.7 15 Noroeste 39 Noroeste 0 977.8 -1.5 18
2019-05-27 18:00:00 33.2 12 Noroeste 33 Noroeste 0 978.2 -1.9 17
2019-05-27 17:00:00 33.5 13 Noroeste 29 Norte 0 978.7 -2.2 18
2019-05-27 16:00:00 32.9 12 Norte 26 Noroeste 0 979.3 -2.2 17
2019-05-27 15:00:00 32.9 11 Noroeste 28 Noroeste 0 980.1 -1.7 15
2019-05-27 14:00:00 32.1 8 Oeste 30 Sudoeste 0 980.9 -1.5 20
2019-05-27 13:00:00 28.9 8 Oeste 18 Oeste 0 981.5 -0.9 21
2019-05-27 12:00:00 28.2 5 Sudoeste 14 Oeste 0 981.8 -0.6 23
2019-05-27 11:00:00 24.5 5 Oeste 12 Noroeste 0 982.4 0.4 29
2019-05-27 10:00:00 22.2 5 Oeste 10 Oeste 0 982.4 0.5 32
2019-05-27 09:00:00 17.7 3 Norte 12 Sudeste 0 982.4 0.5 51
2019-05-27 08:00:00 16.4 6 Sudeste 10 Sudeste 0 982 0.1 46
2019-05-27 07:00:00 16.6 2 Sur 4 Oeste 0 981.9 -0.2 50
2019-05-27 06:00:00 17.6 3 Oeste 7 Noroeste 0 981.9 -0.6 47
2019-05-27 05:00:00 18.3 3 Sudoeste 5 Sudoeste 0 981.9 -0.9 42
2019-05-27 04:00:00 19.4 2 Sudeste 9 Sudeste 0 982.1 -0.7 44
2019-05-27 03:00:00 20.3 5 Sur 9 Sur 0 982.5 -0.5 35
2019-05-27 02:00:00 21.9 3 Norte 9 Norte 0 982.8 0.4 34
2019-05-27 01:00:00 22.8 3 Norte 7 Noroeste 0 982.8 0.9 32
2019-05-27 00:00:00 24.2 4 Norte 14 Noroeste 0 983 1.3 31
2019-05-26 23:00:00 25.9 4 Nordeste 14 Nordeste 0 982.4 0.8 27
2019-05-26 22:00:00 28 6 Nordeste 19 Nordeste 0 981.9 -0.1 23
2019-05-26 21:00:00 30.1 6 Nordeste 24 Nordeste 0 981.7 -0.7 18
2019-05-26 20:00:00 31.6 7 Norte 24 Norte 0 981.6 -1.4 17
2019-05-26 19:00:00 32 6 Norte 25 Norte 0 982 -1.7 16
2019-05-26 18:00:00 31.1 10 Norte 27 Noroeste 0 982.4 -2.1 17
2019-05-26 17:00:00 31.3 9 Norte 26 Noroeste 0 983 -2.4 19
2019-05-26 16:00:00 30.3 5 Norte 16 Norte 0 983.7 -2.2 22
2019-05-26 15:00:00 29.2 5 Noroeste 21 Sudoeste 0 984.5 -1.7 20
2019-05-26 14:00:00 27.7 5 Norte 17 Norte 0 985.4 -1 22
2019-05-26 13:00:00 26.8 6 Norte 18 Norte 0 985.9 -0.6 27
2019-05-26 12:00:00 25.8 5 Norte 15 Norte 0 986.2 -0.2 25
2019-05-26 11:00:00 23.8 8 Nordeste 18 Nordeste 0 986.4 0.5 30
2019-05-26 10:00:00 21.2 3 Norte 8 Norte 0 986.5 1 37
2019-05-26 09:00:00 17.4 2 Noroeste 7 Oeste 0 986.4 0.8 47
2019-05-26 08:00:00 15.1 0 Calma 7 Sudeste 0 985.9 0.4 50
2019-05-26 07:00:00 15.4 2 Sur 7 Sudoeste 0 985.5 0 44
2019-05-26 06:00:00 16.7 4 Norte 9 Norte 0 985.6 0 49
2019-05-26 05:00:00 16.9 3 Sudoeste 5 Norte 0 985.5 0 39
2019-05-26 04:00:00 17.7 2 Nordeste 9 Sur 0 985.5 0 37
2019-05-26 03:00:00 20 4 Nordeste 13 Nordeste 0 985.6 0.3 32
2019-05-26 02:00:00 19.5 5 Nordeste 9 Nordeste 0 985.5 0.7 40
2019-05-26 01:00:00 20.7 3 Noroeste 8 Norte 0 985.5 1.3 37
2019-05-26 00:00:00 22.1 4 Norte 12 Nordeste 0 985.3 1.5 31